createdAt,value
2022-08-07T00:01:43.951Z,22.94
2022-08-07T00:04:24.409Z,22.93
2022-08-07T00:06:53.079Z,22.91
2022-08-07T00:09:22.352Z,22.89
2022-08-07T00:11:55.648Z,22.86
2022-08-07T00:14:31.194Z,22.83
2022-08-07T00:17:01.879Z,22.81
2022-08-07T00:20:00.581Z,22.78
2022-08-07T00:23:34.293Z,22.75
2022-08-07T00:26:18.506Z,22.72
2022-08-07T00:28:59.275Z,22.68
2022-08-07T00:31:38.092Z,22.66
2022-08-07T00:34:10.147Z,22.63
2022-08-07T00:36:43.278Z,22.63
2022-08-07T00:39:16.963Z,22.65
2022-08-07T00:42:02.008Z,22.63
2022-08-07T00:44:41.297Z,22.61
2022-08-07T00:48:08.328Z,22.60
2022-08-07T00:50:19.096Z,22.56
2022-08-07T00:52:57.008Z,22.44
2022-08-07T00:56:00.390Z,22.36
2022-08-07T00:58:15.055Z,22.28
2022-08-07T01:00:53.897Z,22.23
2022-08-07T01:03:55.864Z,22.16
2022-08-07T01:06:12.340Z,22.10
2022-08-07T01:08:43.204Z,22.05
2022-08-07T01:12:11.076Z,22.01
2022-08-07T01:14:11.072Z,21.97
2022-08-07T01:16:43.095Z,21.93
2022-08-07T01:19:18.922Z,21.90
2022-08-07T01:21:53.434Z,21.87
2022-08-07T01:24:27.828Z,21.84
2022-08-07T01:27:00.217Z,21.84
2022-08-07T01:32:24.487Z,21.85
2022-08-07T01:34:55.931Z,21.80
2022-08-07T01:37:26.988Z,21.73
2022-08-07T01:40:02.416Z,21.67
2022-08-07T01:42:39.737Z,21.63
2022-08-07T01:45:22.904Z,21.57
2022-08-07T01:48:20.253Z,21.52
2022-08-07T01:52:01.546Z,21.47
2022-08-07T01:54:33.162Z,21.41
2022-08-07T01:57:30.541Z,21.37
2022-08-07T02:00:13.357Z,21.32
2022-08-07T02:03:18.088Z,21.27
2022-08-07T02:06:02.363Z,21.23
2022-08-07T02:08:42.359Z,21.19
2022-08-07T02:11:30.721Z,21.17
2022-08-07T02:14:04.809Z,21.15
2022-08-07T02:16:37.534Z,21.09
2022-08-07T02:20:05.206Z,21.06
2022-08-07T02:22:02.784Z,21.08
2022-08-07T02:24:32.132Z,21.04
2022-08-07T02:27:03.645Z,21.00
2022-08-07T02:29:43.587Z,20.93
2022-08-07T02:32:23.520Z,20.83
2022-08-07T02:34:58.315Z,20.86
2022-08-07T02:37:34.248Z,20.81
2022-08-07T02:40:29.846Z,20.80
2022-08-07T02:42:59.162Z,20.80
2022-08-07T02:45:58.827Z,20.81
2022-08-07T02:48:17.692Z,20.84
2022-08-07T02:50:51.203Z,20.76
2022-08-07T02:53:27.433Z,20.70
2022-08-07T02:56:04.076Z,20.66
2022-08-07T02:58:35.465Z,20.61
2022-08-07T03:01:16.047Z,20.58
2022-08-07T03:03:50.879Z,20.54
2022-08-07T03:09:43.823Z,20.46
2022-08-07T03:12:21.836Z,20.47
2022-08-07T03:16:27.857Z,20.49
2022-08-07T03:18:59.578Z,20.40
2022-08-07T03:21:33.105Z,20.40
2022-08-07T03:24:18.132Z,20.37
2022-08-07T03:26:58.763Z,20.32
2022-08-07T03:29:37.814Z,20.30
2022-08-07T03:32:13.327Z,20.26
2022-08-07T03:35:16.746Z,20.21
2022-08-07T03:37:46.531Z,20.24
2022-08-07T03:40:30.914Z,20.19
2022-08-07T03:43:10.100Z,20.15
2022-08-07T03:45:47.612Z,20.15
2022-08-07T03:49:01.916Z,20.16
2022-08-07T03:51:31.051Z,20.15
2022-08-07T03:54:35.809Z,20.14
2022-08-07T03:58:32.893Z,20.15
2022-08-07T04:00:56.980Z,20.17
2022-08-07T04:03:28.659Z,20.22
2022-08-07T04:06:37.516Z,20.25
2022-08-07T04:09:08.375Z,20.29
2022-08-07T04:12:21.346Z,20.29
2022-08-07T04:14:43.879Z,20.30
2022-08-07T04:17:20.884Z,20.28
2022-08-07T04:19:55.744Z,20.30
2022-08-07T04:22:53.346Z,20.34
2022-08-07T04:25:39.230Z,20.36
2022-08-07T04:28:24.467Z,20.37
2022-08-07T04:30:56.824Z,20.39
2022-08-07T04:33:33.625Z,20.41
2022-08-07T04:36:36.149Z,20.46
2022-08-07T04:39:53.179Z,20.53
2022-08-07T04:42:35.701Z,20.60
2022-08-07T04:45:08.117Z,20.63
2022-08-07T04:48:10.155Z,20.66
2022-08-07T04:50:53.967Z,20.68
2022-08-07T04:54:01.967Z,20.74
2022-08-07T04:58:15.071Z,20.81
2022-08-07T05:00:11.306Z,20.92
2022-08-07T05:02:53.850Z,21.01
2022-08-07T05:06:01.187Z,21.09
2022-08-07T05:09:01.957Z,21.20
2022-08-07T05:11:57.951Z,21.28
2022-08-07T05:14:53.976Z,21.36
2022-08-07T05:17:52.638Z,21.44
2022-08-07T05:21:02.491Z,21.54
2022-08-07T05:23:55.545Z,21.61
2022-08-07T05:26:28.287Z,21.68
2022-08-07T05:29:05.206Z,21.75
2022-08-07T05:31:39.535Z,21.79
2022-08-07T05:34:14.973Z,21.84
2022-08-07T05:38:08.411Z,21.89
2022-08-07T05:40:50.374Z,22.02
2022-08-07T05:43:43.390Z,22.10
2022-08-07T05:46:10.434Z,22.18
2022-08-07T05:48:59.118Z,22.25
2022-08-07T05:51:31.773Z,22.36
2022-08-07T05:54:13.677Z,22.46
2022-08-07T05:56:59.280Z,22.58
2022-08-07T05:59:57.359Z,22.68
2022-08-07T06:02:32.071Z,22.75
2022-08-07T06:05:15.730Z,22.83
2022-08-07T06:08:13.960Z,22.95
2022-08-07T06:10:39.068Z,23.08
2022-08-07T06:13:13.433Z,23.21
2022-08-07T06:15:43.626Z,23.33
2022-08-07T06:18:18.942Z,23.41
2022-08-07T06:20:50.903Z,23.51
2022-08-07T06:24:38.779Z,23.64
2022-08-07T06:29:13.768Z,23.83
2022-08-07T06:31:50.191Z,23.91
2022-08-07T06:34:29.623Z,24.01
2022-08-07T06:37:17.019Z,24.17
2022-08-07T06:40:16.465Z,24.26
2022-08-07T06:42:42.550Z,24.39
2022-08-07T06:45:26.550Z,24.48
2022-08-07T06:47:59.309Z,24.60
2022-08-07T06:50:36.254Z,24.72
2022-08-07T06:53:18.632Z,24.83
2022-08-07T06:56:02.163Z,24.91
2022-08-07T06:58:35.796Z,24.98
2022-08-07T07:01:14.408Z,25.10
2022-08-07T07:17:50.649Z,26.17
2022-08-07T07:20:35.688Z,26.49
2022-08-07T07:24:11.242Z,26.58
2022-08-07T07:26:35.897Z,26.67
2022-08-07T07:29:28.475Z,26.78
2022-08-07T07:31:55.671Z,26.89
2022-08-07T07:34:30.960Z,26.99
2022-08-07T07:37:05.598Z,27.09
2022-08-07T07:39:55.600Z,27.14
2022-08-07T07:42:32.834Z,27.18
2022-08-07T07:45:06.449Z,27.22
2022-08-07T07:47:42.929Z,27.24
2022-08-07T07:50:33.020Z,27.31
2022-08-07T07:53:20.188Z,27.44
2022-08-07T07:56:01.022Z,27.55
2022-08-07T07:58:41.173Z,27.60
2022-08-07T08:02:01.572Z,27.62
2022-08-07T08:04:12.186Z,27.64
2022-08-07T08:06:50.975Z,27.72
2022-08-07T08:09:29.997Z,27.85
2022-08-07T08:12:02.487Z,27.95
2022-08-07T08:14:36.484Z,27.95
2022-08-07T08:17:58.112Z,28.04
2022-08-07T08:20:27.408Z,28.19
2022-08-07T08:23:20.882Z,28.33
2022-08-07T08:26:23.601Z,28.51
2022-08-07T08:28:56.995Z,28.62
2022-08-07T08:32:17.238Z,28.66
2022-08-07T08:34:34.000Z,28.65
2022-08-07T08:37:09.938Z,28.62
2022-08-07T08:39:58.483Z,28.68
2022-08-07T08:42:54.982Z,28.82
2022-08-07T08:45:41.497Z,28.90
2022-08-07T08:48:28.461Z,29.03
2022-08-07T08:51:14.571Z,29.07
2022-08-07T08:54:15.896Z,29.22
2022-08-07T08:56:50.320Z,29.36
2022-08-07T08:59:41.967Z,29.48
2022-08-07T09:02:42.139Z,29.70
2022-08-07T09:05:36.674Z,29.77
2022-08-07T09:08:18.033Z,29.88
2022-08-07T09:11:09.824Z,29.96
2022-08-07T09:14:03.249Z,30.13
2022-08-07T09:16:43.372Z,30.23
2022-08-07T09:19:51.473Z,30.25
2022-08-07T09:24:29.451Z,30.38
2022-08-07T09:25:18.154Z,30.53
2022-08-07T09:29:24.452Z,30.69
2022-08-07T09:31:08.674Z,30.83
2022-08-07T09:33:57.287Z,30.89
2022-08-07T09:36:37.375Z,30.94
2022-08-07T09:39:55.024Z,31.03
2022-08-07T09:42:25.530Z,31.04
2022-08-07T09:47:54.990Z,31.06
2022-08-07T09:48:02.950Z,31.06
2022-08-07T09:51:05.518Z,31.02
2022-08-07T09:54:05.206Z,30.77
2022-08-07T09:57:28.004Z,30.73
2022-08-07T10:00:14.728Z,30.68
2022-08-07T10:04:06.191Z,30.72
2022-08-07T10:06:36.927Z,30.77
2022-08-07T10:09:59.000Z,30.95
2022-08-07T10:12:55.798Z,31.14
2022-08-07T10:16:02.418Z,31.41
2022-08-07T10:18:54.891Z,31.55
2022-08-07T10:22:12.331Z,31.70
2022-08-07T10:25:20.965Z,31.84
2022-08-07T10:28:05.176Z,31.97
2022-08-07T10:30:42.976Z,32.12
2022-08-07T10:34:05.833Z,32.21
2022-08-07T10:36:54.277Z,32.19
2022-08-07T10:39:41.974Z,32.15
2022-08-07T10:42:46.180Z,32.02
2022-08-07T10:45:45.056Z,31.88
2022-08-07T10:48:35.681Z,31.91
2022-08-07T10:51:39.456Z,31.98
2022-08-07T10:54:18.737Z,32.03
2022-08-07T10:56:58.920Z,31.97
2022-08-07T10:59:50.672Z,31.94
2022-08-07T11:02:34.028Z,31.97
2022-08-07T11:05:24.262Z,32.01
2022-08-07T11:08:11.751Z,31.96
2022-08-07T11:11:03.560Z,32.09
2022-08-07T11:14:45.907Z,32.28
2022-08-07T11:16:46.958Z,32.59
2022-08-07T11:19:47.226Z,32.85
2022-08-07T11:22:32.494Z,33.03
2022-08-07T11:25:14.817Z,33.24
2022-08-07T11:28:02.466Z,33.52
2022-08-07T11:30:52.675Z,33.75
2022-08-07T11:33:59.909Z,33.95
2022-08-07T11:36:31.974Z,34.13
2022-08-07T11:39:59.303Z,34.37
2022-08-07T11:42:30.398Z,34.56
2022-08-07T11:45:35.512Z,34.66
2022-08-07T11:49:27.409Z,34.70
2022-08-07T11:51:46.896Z,34.68
2022-08-07T11:54:27.581Z,34.80
2022-08-07T11:57:18.919Z,34.69
2022-08-07T12:00:11.340Z,34.70
2022-08-07T12:03:05.022Z,34.88
2022-08-07T12:06:36.987Z,35.10
2022-08-07T12:09:16.806Z,35.41
2022-08-07T12:12:12.140Z,35.69
2022-08-07T12:15:01.876Z,35.87
2022-08-07T12:17:59.412Z,35.73
2022-08-07T12:20:36.423Z,36.17
2022-08-07T12:24:05.589Z,36.92
2022-08-07T12:26:29.727Z,37.82
2022-08-07T12:29:37.730Z,38.62
2022-08-07T12:32:40.584Z,39.07
2022-08-07T12:35:14.067Z,39.00
2022-08-07T12:38:10.202Z,38.51
2022-08-07T12:40:48.566Z,37.96
2022-08-07T12:44:03.921Z,37.45
2022-08-07T12:46:48.926Z,38.35
2022-08-07T12:49:44.790Z,39.79
2022-08-07T12:52:35.319Z,41.06
2022-08-07T12:55:41.465Z,41.16
2022-08-07T12:58:18.123Z,41.00
2022-08-07T13:01:07.778Z,41.68
2022-08-07T13:03:54.662Z,42.60
2022-08-07T13:07:01.963Z,43.49
2022-08-07T13:10:20.079Z,44.38
2022-08-07T13:13:48.559Z,44.90
2022-08-07T13:16:36.781Z,45.05
2022-08-07T13:19:59.805Z,45.38
2022-08-07T13:22:53.320Z,45.61
2022-08-07T13:25:39.632Z,46.53
2022-08-07T13:28:23.991Z,47.23
2022-08-07T13:31:06.369Z,47.79
2022-08-07T13:34:34.325Z,48.36
2022-08-07T13:37:19.575Z,48.21
2022-08-07T13:40:36.818Z,47.35
2022-08-07T13:43:01.844Z,46.01
2022-08-07T13:46:11.284Z,44.74
2022-08-07T13:48:34.716Z,43.63
2022-08-07T13:51:28.142Z,42.88
2022-08-07T13:54:03.056Z,42.18
2022-08-07T13:56:36.312Z,41.62
2022-08-07T13:59:21.114Z,41.16
2022-08-07T14:02:03.692Z,40.68
2022-08-07T14:04:49.016Z,40.22
2022-08-07T14:07:23.058Z,39.85
2022-08-07T14:10:12.265Z,39.83
2022-08-07T14:12:49.463Z,39.54
2022-08-07T14:15:36.136Z,39.73
2022-08-07T14:18:27.668Z,40.42
2022-08-07T14:22:02.904Z,41.25
2022-08-07T14:24:33.637Z,41.71
2022-08-07T14:27:16.087Z,42.28
2022-08-07T14:30:10.416Z,43.03
2022-08-07T14:32:50.805Z,43.60
2022-08-07T14:35:45.327Z,43.67
2022-08-07T14:38:24.796Z,43.85
2022-08-07T14:41:04.362Z,43.59
2022-08-07T14:43:59.067Z,43.05
2022-08-07T14:46:33.437Z,41.99
2022-08-07T14:49:17.280Z,40.95
2022-08-07T14:52:04.199Z,39.83
2022-08-07T14:54:42.114Z,39.05
2022-08-07T15:00:07.013Z,39.92
2022-08-07T15:02:39.618Z,40.76
2022-08-07T15:05:20.303Z,41.44
2022-08-07T15:07:55.390Z,41.41
2022-08-07T15:10:30.162Z,41.29
2022-08-07T15:13:05.647Z,41.51
2022-08-07T15:15:38.966Z,41.44
2022-08-07T15:18:29.518Z,40.93
2022-08-07T15:25:14.677Z,38.84
2022-08-07T15:27:04.333Z,37.65
2022-08-07T15:30:08.408Z,36.87
2022-08-07T15:32:39.175Z,36.30
2022-08-07T15:36:00.587Z,36.16
2022-08-07T15:38:30.161Z,35.92
2022-08-07T15:42:42.532Z,36.08
2022-08-07T15:44:01.481Z,36.12
2022-08-07T15:46:39.225Z,36.12
2022-08-07T15:49:25.645Z,36.18
2022-08-07T15:52:13.941Z,36.35
2022-08-07T15:54:48.378Z,36.32
2022-08-07T15:57:39.518Z,36.01
2022-08-07T16:00:31.469Z,35.14
2022-08-07T16:03:06.899Z,34.40
2022-08-07T16:05:57.282Z,33.83
2022-08-07T16:08:37.712Z,33.40
2022-08-07T16:11:40.095Z,32.92
2022-08-07T16:14:17.262Z,32.61
2022-08-07T16:18:02.394Z,32.43
2022-08-07T16:21:43.798Z,32.30
2022-08-07T16:23:58.575Z,31.99
2022-08-07T16:26:58.728Z,31.64
2022-08-07T16:30:10.356Z,31.39
2022-08-07T16:34:03.355Z,31.08
2022-08-07T16:37:02.548Z,30.93
2022-08-07T16:40:06.438Z,30.64
2022-08-07T16:42:46.077Z,30.45
2022-08-07T16:46:33.173Z,30.19
2022-08-07T16:50:13.756Z,29.92
2022-08-07T16:52:02.068Z,29.65
2022-08-07T16:54:57.924Z,29.46
2022-08-07T16:58:03.243Z,29.18
2022-08-07T17:01:01.047Z,29.04
2022-08-07T17:03:58.551Z,28.75
2022-08-07T17:06:46.499Z,28.67
2022-08-07T17:10:06.825Z,28.57
2022-08-07T17:12:35.119Z,28.49
2022-08-07T17:15:43.644Z,28.21
2022-08-07T17:18:28.117Z,28.14
2022-08-07T17:20:56.637Z,28.05
2022-08-07T17:23:53.524Z,27.90
2022-08-07T17:26:35.838Z,27.72
2022-08-07T17:30:14.632Z,27.50
2022-08-07T17:34:10.351Z,27.39
2022-08-07T17:36:20.420Z,27.26
2022-08-07T17:39:10.404Z,27.21
2022-08-07T17:42:07.017Z,27.15
2022-08-07T17:44:45.296Z,26.97
2022-08-07T17:47:38.280Z,26.91
2022-08-07T17:50:42.283Z,26.84
2022-08-07T17:54:05.979Z,26.77
2022-08-07T17:57:18.875Z,26.66
2022-08-07T17:59:53.932Z,26.51
2022-08-07T18:02:56.684Z,26.44
2022-08-07T18:06:02.319Z,26.34
2022-08-07T18:09:00.607Z,26.26
2022-08-07T18:12:30.319Z,26.20
2022-08-07T18:15:08.646Z,25.97
2022-08-07T18:18:46.314Z,25.92
2022-08-07T18:21:40.129Z,25.79
2022-08-07T18:24:09.259Z,25.70
2022-08-07T18:26:57.002Z,25.70
2022-08-07T18:30:31.972Z,25.58
2022-08-07T18:33:33.886Z,25.57
2022-08-07T18:36:32.901Z,25.54
2022-08-07T18:40:06.872Z,25.50
2022-08-07T18:42:29.034Z,25.44
2022-08-07T18:45:44.584Z,25.37
2022-08-07T18:49:03.677Z,25.38
2022-08-07T18:52:37.362Z,25.35
2022-08-07T18:54:54.875Z,25.33
2022-08-07T18:57:58.389Z,25.29
2022-08-07T19:02:06.853Z,25.26
2022-08-07T19:04:19.124Z,25.21
2022-08-07T19:07:11.287Z,25.19
2022-08-07T19:09:57.455Z,25.19
2022-08-07T19:12:49.000Z,25.23
2022-08-07T19:16:05.677Z,25.22
2022-08-07T19:18:44.671Z,25.18
2022-08-07T19:21:56.114Z,25.17
2022-08-07T19:24:43.217Z,25.16
2022-08-07T19:28:57.314Z,25.14
2022-08-07T19:31:00.217Z,25.14
2022-08-07T19:33:15.454Z,25.04
2022-08-07T19:35:57.476Z,25.00
2022-08-07T19:38:32.243Z,25.00
2022-08-07T19:41:03.296Z,25.00
2022-08-07T19:46:55.595Z,25.02
2022-08-07T19:49:57.962Z,24.99
2022-08-07T19:54:31.587Z,25.01
2022-08-07T19:56:13.585Z,24.99
2022-08-07T19:59:24.571Z,24.99
2022-08-07T20:02:19.767Z,24.98
2022-08-07T20:05:03.168Z,24.98
2022-08-07T20:08:10.436Z,24.95
2022-08-07T20:11:03.913Z,24.94
2022-08-07T20:13:49.915Z,24.90
2022-08-07T20:16:35.547Z,24.87
2022-08-07T20:21:58.320Z,24.71
2022-08-07T20:24:36.328Z,24.66
2022-08-07T20:27:15.295Z,24.58
2022-08-07T20:30:22.343Z,24.55
2022-08-07T20:32:55.236Z,24.48
2022-08-07T20:38:22.732Z,24.37
2022-08-07T20:41:03.905Z,24.41
2022-08-07T20:43:57.348Z,24.37
2022-08-07T20:46:43.909Z,24.34
2022-08-07T20:50:00.966Z,24.34
2022-08-07T20:52:14.223Z,24.33
2022-08-07T20:54:53.779Z,24.31
2022-08-07T20:57:30.014Z,24.29
2022-08-07T21:00:09.553Z,24.25
2022-08-07T21:03:00.953Z,24.22
2022-08-07T21:05:52.426Z,24.16
2022-08-07T21:09:13.671Z,24.14
2022-08-07T21:12:30.832Z,24.12
2022-08-07T21:15:09.872Z,23.97
2022-08-07T21:18:03.822Z,23.91
2022-08-07T21:20:56.259Z,23.83
2022-08-07T21:23:38.856Z,23.82
2022-08-07T21:26:39.538Z,23.82
2022-08-07T21:29:18.936Z,23.78
2022-08-07T21:32:47.248Z,23.68
2022-08-07T21:35:59.986Z,23.65
2022-08-07T21:38:56.304Z,23.65
2022-08-07T21:41:38.362Z,23.57
2022-08-07T21:44:50.934Z,23.52
2022-08-07T21:47:51.083Z,23.54
2022-08-07T21:50:32.857Z,23.51
2022-08-07T21:53:12.949Z,23.46
2022-08-07T21:55:48.596Z,23.39
2022-08-07T21:58:30.549Z,23.36
2022-08-07T22:01:14.355Z,23.39
2022-08-07T22:04:13.988Z,23.34
2022-08-07T22:07:06.915Z,23.34
2022-08-07T22:09:53.863Z,23.37
2022-08-07T22:12:59.173Z,23.34
2022-08-07T22:16:38.995Z,23.34
2022-08-07T22:18:46.304Z,23.37
2022-08-07T22:22:02.161Z,23.36
2022-08-07T22:25:07.530Z,23.33
2022-08-07T22:28:03.261Z,23.32
2022-08-07T22:30:57.344Z,23.35
2022-08-07T22:33:52.549Z,23.32
2022-08-07T22:36:57.913Z,23.30
2022-08-07T22:39:53.165Z,23.23
2022-08-07T22:42:30.612Z,23.23
2022-08-07T22:46:40.482Z,23.23
2022-08-07T22:49:01.305Z,23.23
2022-08-07T22:52:10.290Z,23.21
2022-08-07T22:55:22.534Z,23.22
2022-08-07T22:58:38.079Z,23.18
2022-08-07T23:01:50.913Z,23.14
2022-08-07T23:04:56.863Z,23.11
2022-08-07T23:07:41.839Z,23.08
2022-08-07T23:10:38.203Z,23.03
2022-08-07T23:14:09.171Z,22.99
2022-08-07T23:16:54.908Z,22.96
2022-08-07T23:20:13.579Z,22.98
2022-08-07T23:23:05.119Z,22.97
2022-08-07T23:26:06.042Z,22.96
2022-08-07T23:28:57.840Z,22.99
2022-08-07T23:34:18.617Z,23.00
2022-08-07T23:35:10.548Z,22.99
2022-08-07T23:38:19.066Z,22.94
2022-08-07T23:41:24.470Z,22.96
2022-08-07T23:44:53.973Z,22.93
2022-08-07T23:47:42.392Z,22.97
2022-08-07T23:50:29.758Z,22.99
2022-08-07T23:53:49.461Z,22.98
2022-08-07T23:56:35.106Z,22.96
